createdAt,value
2018-03-29T00:01:23.158Z,9.05
2018-03-29T00:03:52.285Z,9.07
2018-03-29T00:06:21.390Z,9.09
2018-03-29T00:08:50.489Z,9.09
2018-03-29T00:11:19.609Z,9.16
2018-03-29T00:13:49.511Z,9.12
2018-03-29T00:16:19.397Z,9.15
2018-03-29T00:18:48.470Z,9.18
2018-03-29T00:21:17.608Z,9.18
2018-03-29T00:23:46.741Z,9.17
2018-03-29T00:26:15.842Z,9.19
2018-03-29T00:28:44.931Z,9.16
2018-03-29T00:31:14.053Z,9.19
2018-03-29T00:33:43.153Z,9.17
2018-03-29T00:36:12.284Z,9.15
2018-03-29T00:38:41.386Z,9.17
2018-03-29T00:41:10.490Z,9.09
2018-03-29T00:43:39.610Z,9.04
2018-03-29T00:46:08.780Z,9.06
2018-03-29T00:48:38.630Z,9.03
2018-03-29T00:51:07.803Z,8.96
2018-03-29T00:53:45.552Z,8.95
2018-03-29T00:56:14.668Z,8.92
2018-03-29T00:58:43.786Z,8.90
2018-03-29T01:01:12.920Z,8.90
2018-03-29T01:03:42.043Z,8.89
2018-03-29T01:06:11.156Z,8.87
2018-03-29T01:08:40.265Z,8.84
2018-03-29T01:11:10.421Z,8.82
2018-03-29T01:13:39.589Z,8.83
2018-03-29T01:16:10.701Z,8.84
2018-03-29T01:18:40.588Z,8.88
2018-03-29T01:21:11.261Z,8.89
2018-03-29T01:23:40.372Z,8.86
2018-03-29T01:26:11.200Z,8.86
2018-03-29T01:28:40.307Z,8.84
2018-03-29T01:31:11.207Z,8.80
2018-03-29T01:33:40.319Z,8.77
2018-03-29T01:36:12.170Z,8.78
2018-03-29T01:38:41.267Z,8.73
2018-03-29T01:41:11.353Z,8.66
2018-03-29T01:43:40.458Z,8.69
2018-03-29T01:46:11.337Z,8.66
2018-03-29T01:48:40.430Z,8.61
2018-03-29T01:51:10.466Z,8.61
2018-03-29T01:53:40.341Z,8.63
2018-03-29T01:56:11.243Z,8.59
2018-03-29T01:58:40.338Z,8.53
2018-03-29T02:01:11.305Z,8.51
2018-03-29T02:03:40.381Z,8.48
2018-03-29T02:06:11.231Z,8.48
2018-03-29T02:08:41.092Z,8.43
2018-03-29T02:11:11.491Z,8.40
2018-03-29T02:13:40.579Z,8.33
2018-03-29T02:16:10.528Z,8.30
2018-03-29T02:18:39.650Z,8.32
2018-03-29T02:21:08.742Z,8.27
2018-03-29T02:23:37.835Z,8.27
2018-03-29T02:26:07.727Z,8.31
2018-03-29T02:28:36.822Z,8.33
2018-03-29T02:31:05.915Z,8.36
2018-03-29T02:33:35.028Z,8.40
2018-03-29T02:36:04.923Z,8.48
2018-03-29T02:38:34.011Z,8.51
2018-03-29T02:41:03.131Z,8.52
2018-03-29T02:43:32.230Z,8.54
2018-03-29T02:46:02.115Z,8.53
2018-03-29T02:48:31.194Z,8.55
2018-03-29T02:51:00.320Z,8.50
2018-03-29T02:53:29.437Z,8.51
2018-03-29T02:55:59.294Z,8.51
2018-03-29T02:58:28.419Z,8.48
2018-03-29T03:00:57.523Z,8.46
2018-03-29T03:03:26.666Z,8.44
2018-03-29T03:05:55.781Z,8.46
2018-03-29T03:08:24.894Z,8.46
2018-03-29T03:10:53.988Z,8.43
2018-03-29T03:13:23.120Z,8.38
2018-03-29T03:15:52.984Z,8.30
2018-03-29T03:18:22.086Z,8.23
2018-03-29T03:20:51.936Z,8.21
2018-03-29T03:23:21.818Z,8.17
2018-03-29T03:25:50.901Z,8.19
2018-03-29T03:28:20.047Z,8.20
2018-03-29T03:30:49.141Z,8.27
2018-03-29T03:33:18.294Z,8.28
2018-03-29T03:35:48.131Z,8.33
2018-03-29T03:38:17.255Z,8.30
2018-03-29T03:40:47.179Z,8.32
2018-03-29T03:43:17.079Z,8.35
2018-03-29T03:45:46.176Z,8.36
2018-03-29T03:48:15.287Z,8.36
2018-03-29T03:50:45.137Z,8.35
2018-03-29T03:53:15.023Z,8.35
2018-03-29T03:55:44.886Z,8.36
2018-03-29T03:58:13.984Z,8.40
2018-03-29T04:00:43.110Z,8.37
2018-03-29T04:03:12.981Z,8.32
2018-03-29T04:05:42.881Z,8.24
2018-03-29T04:08:11.963Z,8.32
2018-03-29T04:10:41.052Z,8.26
2018-03-29T04:13:11.406Z,8.25
2018-03-29T04:15:40.495Z,8.22
2018-03-29T04:18:10.609Z,8.23
2018-03-29T04:20:39.701Z,8.20
2018-03-29T04:23:08.800Z,8.22
2018-03-29T04:25:37.891Z,8.25
2018-03-29T04:28:07.013Z,8.24
2018-03-29T04:30:36.949Z,8.21
2018-03-29T04:33:06.042Z,8.21
2018-03-29T04:35:35.158Z,8.24
2018-03-29T04:38:05.027Z,8.25
2018-03-29T04:40:34.152Z,8.28
2018-03-29T04:43:03.248Z,8.26
2018-03-29T04:45:32.373Z,8.27
2018-03-29T04:48:02.237Z,8.22
2018-03-29T04:50:31.343Z,8.13
2018-03-29T04:53:00.430Z,8.09
2018-03-29T04:55:29.582Z,8.09
2018-03-29T04:57:58.646Z,8.08
2018-03-29T05:00:27.766Z,8.04
2018-03-29T05:02:57.646Z,7.99
2018-03-29T05:05:26.754Z,7.96
2018-03-29T05:07:55.867Z,8.04
2018-03-29T05:10:25.783Z,8.06
2018-03-29T05:12:55.666Z,8.16
2018-03-29T05:15:24.771Z,8.18
2018-03-29T05:17:53.853Z,8.21
2018-03-29T05:20:22.969Z,8.23
2018-03-29T05:22:52.874Z,8.28
2018-03-29T05:25:21.979Z,8.31
2018-03-29T05:27:53.880Z,8.35
2018-03-29T05:30:22.971Z,8.47
2018-03-29T05:32:52.108Z,8.48
2018-03-29T05:35:21.197Z,8.55
2018-03-29T05:37:50.346Z,8.48
2018-03-29T05:40:19.405Z,8.48
2018-03-29T05:42:48.548Z,8.44
2018-03-29T05:45:17.663Z,8.42
2018-03-29T05:47:46.748Z,8.41
2018-03-29T05:50:15.860Z,8.41
2018-03-29T05:52:44.997Z,8.46
2018-03-29T05:55:14.099Z,8.33
2018-03-29T05:57:43.214Z,8.31
2018-03-29T06:00:13.226Z,8.33
2018-03-29T06:02:43.108Z,8.30
2018-03-29T06:05:12.207Z,8.30
2018-03-29T06:07:41.303Z,8.37
2018-03-29T06:10:11.520Z,8.28
2018-03-29T06:12:41.374Z,8.33
2018-03-29T06:15:16.378Z,8.28
2018-03-29T06:18:01.368Z,8.34
2018-03-29T06:20:30.456Z,8.40
2018-03-29T06:22:59.562Z,8.34
2018-03-29T06:25:29.446Z,8.39
2018-03-29T06:27:58.581Z,8.35
2018-03-29T06:30:28.446Z,8.40
2018-03-29T06:32:58.026Z,8.26
2018-03-29T06:35:27.130Z,8.31
2018-03-29T06:37:56.352Z,8.26
2018-03-29T06:40:25.450Z,8.20
2018-03-29T06:42:54.575Z,8.16
2018-03-29T06:45:23.677Z,8.17
2018-03-29T06:47:52.786Z,8.20
2018-03-29T06:50:22.696Z,8.21
2018-03-29T06:52:51.784Z,8.17
2018-03-29T06:55:21.699Z,8.17
2018-03-29T06:57:50.802Z,8.19
2018-03-29T07:00:20.661Z,8.37
2018-03-29T07:02:49.790Z,8.41
2018-03-29T07:05:18.895Z,8.26
2018-03-29T07:07:48.026Z,8.35
2018-03-29T07:10:17.107Z,8.45
2018-03-29T07:12:46.968Z,8.47
2018-03-29T07:15:16.059Z,8.68
2018-03-29T07:17:45.908Z,8.63
2018-03-29T07:20:15.031Z,8.79
2018-03-29T07:22:44.144Z,8.76
2018-03-29T07:25:13.264Z,8.95
2018-03-29T07:27:42.373Z,8.94
2018-03-29T07:30:11.531Z,9.00
2018-03-29T07:32:40.658Z,8.92
2018-03-29T07:35:11.023Z,9.15
2018-03-29T07:37:40.115Z,9.12
2018-03-29T07:40:11.235Z,9.26
2018-03-29T07:42:40.314Z,9.46
2018-03-29T07:45:09.527Z,9.48
2018-03-29T07:47:38.610Z,9.43
2018-03-29T07:50:07.734Z,9.49
2018-03-29T07:52:36.827Z,9.45
2018-03-29T07:55:06.024Z,9.54
2018-03-29T07:57:35.143Z,9.57
2018-03-29T08:00:04.287Z,9.59
2018-03-29T08:02:33.423Z,9.52
2018-03-29T08:05:03.332Z,9.61
2018-03-29T08:07:33.170Z,9.59
2018-03-29T08:10:02.272Z,9.44
2018-03-29T08:12:31.417Z,9.34
2018-03-29T08:15:00.538Z,9.48
2018-03-29T08:17:29.634Z,9.56
2018-03-29T08:19:58.747Z,9.55
2018-03-29T08:22:28.647Z,9.59
2018-03-29T08:24:57.755Z,9.54
2018-03-29T08:27:27.629Z,9.58
2018-03-29T08:29:56.730Z,9.46
2018-03-29T08:32:25.866Z,9.30
2018-03-29T08:34:55.779Z,9.45
2018-03-29T08:37:25.681Z,9.53
2018-03-29T08:39:54.805Z,9.52
2018-03-29T08:42:23.919Z,9.52
2018-03-29T08:44:53.031Z,9.65
2018-03-29T08:47:22.116Z,9.77
2018-03-29T08:49:51.231Z,9.82
2018-03-29T08:52:20.332Z,9.86
2018-03-29T08:54:49.443Z,9.92
2018-03-29T08:57:18.584Z,10.12
2018-03-29T08:59:47.709Z,10.22
2018-03-29T09:02:16.819Z,10.25
2018-03-29T09:04:45.924Z,10.15
2018-03-29T09:07:15.029Z,10.19
2018-03-29T09:09:44.139Z,10.24
2018-03-29T09:12:14.817Z,10.29
2018-03-29T09:14:43.935Z,10.43
2018-03-29T09:17:13.066Z,10.54
2018-03-29T09:19:42.797Z,10.43
2018-03-29T09:22:11.916Z,10.48
2018-03-29T09:24:41.021Z,10.55
2018-03-29T09:27:12.047Z,10.60
2018-03-29T09:29:41.904Z,10.57
2018-03-29T09:32:11.162Z,10.49
2018-03-29T09:34:41.039Z,10.49
2018-03-29T09:37:11.846Z,10.61
2018-03-29T09:39:40.969Z,10.57
2018-03-29T09:42:11.995Z,10.56
2018-03-29T09:44:41.334Z,10.67
2018-03-29T09:47:12.011Z,10.63
2018-03-29T09:49:41.107Z,10.42
2018-03-29T09:52:12.662Z,10.39
2018-03-29T09:54:42.545Z,10.26
2018-03-29T09:57:12.432Z,10.25
2018-03-29T09:59:42.339Z,10.27
2018-03-29T10:02:17.078Z,10.38
2018-03-29T10:04:52.921Z,10.29
2018-03-29T10:07:24.726Z,10.43
2018-03-29T10:09:53.843Z,10.47
2018-03-29T10:12:22.970Z,10.58
2018-03-29T10:14:52.092Z,10.60
2018-03-29T10:17:21.203Z,10.71
2018-03-29T10:19:50.346Z,10.87
2018-03-29T10:22:19.465Z,10.81
2018-03-29T10:24:48.603Z,10.96
2018-03-29T10:27:18.608Z,11.16
2018-03-29T10:29:47.775Z,11.22
2018-03-29T10:32:16.902Z,11.16
2018-03-29T10:34:46.011Z,11.01
2018-03-29T10:37:15.118Z,11.23
2018-03-29T10:39:44.827Z,11.46
2018-03-29T10:42:13.926Z,11.22
2018-03-29T10:44:44.119Z,11.42
2018-03-29T10:47:13.282Z,11.56
2018-03-29T10:49:42.449Z,11.55
2018-03-29T10:52:11.562Z,11.56
2018-03-29T10:54:41.468Z,11.48
2018-03-29T10:57:12.119Z,11.50
2018-03-29T10:59:42.033Z,11.46
2018-03-29T11:02:12.043Z,11.30
2018-03-29T11:04:42.057Z,11.24
2018-03-29T11:07:11.323Z,11.31
2018-03-29T11:09:40.415Z,11.62
2018-03-29T11:12:09.542Z,11.74
2018-03-29T11:14:38.646Z,11.72
2018-03-29T11:17:07.783Z,11.85
2018-03-29T11:19:36.887Z,11.71
2018-03-29T11:22:07.869Z,11.67
2018-03-29T11:24:36.973Z,11.70
2018-03-29T11:27:06.095Z,11.90
2018-03-29T11:29:36.004Z,11.86
2018-03-29T11:32:05.101Z,11.97
2018-03-29T11:34:34.983Z,12.20
2018-03-29T11:37:04.110Z,12.29
2018-03-29T11:39:34.003Z,12.01
2018-03-29T11:42:03.133Z,11.88
2018-03-29T11:44:32.243Z,12.05
2018-03-29T11:47:01.987Z,11.96
2018-03-29T11:49:31.115Z,12.02
2018-03-29T11:52:00.211Z,12.03
2018-03-29T11:54:29.332Z,12.03
2018-03-29T11:56:59.356Z,11.92
2018-03-29T11:59:29.559Z,12.08
2018-03-29T12:02:00.161Z,12.11
2018-03-29T12:04:30.497Z,12.16
2018-03-29T12:06:59.598Z,12.15
2018-03-29T12:09:28.718Z,12.49
2018-03-29T12:11:57.841Z,12.57
2018-03-29T12:14:26.983Z,12.55
2018-03-29T12:16:56.076Z,12.44
2018-03-29T12:19:25.789Z,12.52
2018-03-29T12:21:56.833Z,12.50
2018-03-29T12:24:26.711Z,12.42
2018-03-29T12:26:55.820Z,12.10
2018-03-29T12:29:24.931Z,12.12
2018-03-29T12:31:54.067Z,12.09
2018-03-29T12:34:23.238Z,11.97
2018-03-29T12:36:52.377Z,11.88
2018-03-29T12:39:21.507Z,11.87
2018-03-29T12:41:50.633Z,11.76
2018-03-29T12:44:20.556Z,11.84
2018-03-29T12:46:50.403Z,11.93
2018-03-29T12:49:19.553Z,12.14
2018-03-29T12:51:50.229Z,12.20
2018-03-29T12:54:19.355Z,12.11
2018-03-29T12:57:06.210Z,12.09
2018-03-29T12:59:36.088Z,12.04
2018-03-29T13:02:06.200Z,12.03
2018-03-29T13:04:35.314Z,12.00
2018-03-29T13:07:06.208Z,11.84
2018-03-29T13:09:36.216Z,11.69
2018-03-29T13:12:05.336Z,11.80
2018-03-29T13:14:34.460Z,11.76
2018-03-29T13:17:03.622Z,11.74
2018-03-29T13:19:32.717Z,11.69
2018-03-29T13:22:01.830Z,11.69
2018-03-29T13:24:30.947Z,11.73
2018-03-29T13:27:00.070Z,11.70
2018-03-29T13:29:29.211Z,11.71
2018-03-29T13:31:58.340Z,11.78
2018-03-29T13:34:27.467Z,11.75
2018-03-29T13:36:57.336Z,11.57
2018-03-29T13:39:26.483Z,11.58
2018-03-29T13:41:55.593Z,11.50
2018-03-29T13:44:24.734Z,11.52
2018-03-29T13:46:53.862Z,11.54
2018-03-29T13:49:24.460Z,11.52
2018-03-29T13:51:53.564Z,11.55
2018-03-29T13:54:22.761Z,11.53
2018-03-29T13:56:51.896Z,11.52
2018-03-29T13:59:21.094Z,11.56
2018-03-29T14:01:50.165Z,11.69
2018-03-29T14:04:19.290Z,11.78
2018-03-29T14:06:48.451Z,11.75
2018-03-29T14:09:18.334Z,11.78
2018-03-29T14:11:47.472Z,11.79
2018-03-29T14:14:17.366Z,11.76
2018-03-29T14:16:46.482Z,11.91
2018-03-29T14:19:16.393Z,11.91
2018-03-29T14:21:45.528Z,12.15
2018-03-29T14:24:14.633Z,12.36
2018-03-29T14:26:43.747Z,12.32
2018-03-29T14:29:12.900Z,12.36
2018-03-29T14:31:42.038Z,12.16
2018-03-29T14:34:12.473Z,11.95
2018-03-29T14:36:41.611Z,11.97
2018-03-29T14:39:11.635Z,12.31
2018-03-29T14:41:40.767Z,12.48
2018-03-29T14:44:09.907Z,12.57
2018-03-29T14:46:39.858Z,12.39
2018-03-29T14:49:08.965Z,12.53
2018-03-29T14:51:38.874Z,12.65
2018-03-29T14:54:07.999Z,12.33
2018-03-29T14:56:37.097Z,12.14
2018-03-29T14:59:06.241Z,12.08
2018-03-29T15:01:35.367Z,12.22
2018-03-29T15:04:04.555Z,12.30
2018-03-29T15:06:33.659Z,12.29
2018-03-29T15:09:02.824Z,12.23
2018-03-29T15:11:31.889Z,12.27
2018-03-29T15:14:00.993Z,12.85
2018-03-29T15:16:30.119Z,12.77
2018-03-29T15:18:59.990Z,13.16
2018-03-29T15:21:29.126Z,13.89
2018-03-29T15:23:58.993Z,14.91
2018-03-29T15:26:28.139Z,15.42
2018-03-29T15:28:57.240Z,15.39
2018-03-29T15:31:26.375Z,15.50
2018-03-29T15:33:55.482Z,15.01
2018-03-29T15:36:24.591Z,15.71
2018-03-29T15:38:53.736Z,16.21
2018-03-29T15:41:22.888Z,16.51
2018-03-29T15:43:52.031Z,16.45
2018-03-29T15:46:21.156Z,16.79
2018-03-29T15:48:50.307Z,16.26
2018-03-29T15:51:20.194Z,16.04
2018-03-29T15:53:49.341Z,15.48
2018-03-29T15:56:19.243Z,14.61
2018-03-29T15:58:49.143Z,14.47
2018-03-29T16:01:19.012Z,14.01
2018-03-29T16:03:48.151Z,14.20
2018-03-29T16:06:18.046Z,13.99
2018-03-29T16:08:47.209Z,14.05
2018-03-29T16:11:17.082Z,13.96
2018-03-29T16:13:46.210Z,15.57
2018-03-29T16:16:15.349Z,18.27
2018-03-29T16:18:44.474Z,18.09
2018-03-29T16:21:13.572Z,16.92
2018-03-29T16:23:42.700Z,16.65
2018-03-29T16:26:12.651Z,19.01
2018-03-29T16:28:41.803Z,19.99
2018-03-29T16:31:11.930Z,20.78
2018-03-29T16:33:41.091Z,20.40
2018-03-29T16:36:10.207Z,18.80
2018-03-29T16:38:39.352Z,16.85
2018-03-29T16:41:08.470Z,16.79
2018-03-29T16:43:37.566Z,16.21
2018-03-29T16:46:07.485Z,14.80
2018-03-29T16:48:36.617Z,14.24
2018-03-29T16:51:05.733Z,13.89
2018-03-29T16:53:34.861Z,13.52
2018-03-29T16:56:03.986Z,13.34
2018-03-29T16:58:33.893Z,13.26
2018-03-29T17:01:03.762Z,13.13
2018-03-29T17:03:32.883Z,13.03
2018-03-29T17:06:02.056Z,12.88
2018-03-29T17:08:31.152Z,12.80
2018-03-29T17:11:00.274Z,12.66
2018-03-29T17:13:29.359Z,12.70
2018-03-29T17:15:58.454Z,12.65
2018-03-29T17:18:27.608Z,12.73
2018-03-29T17:20:56.746Z,12.64
2018-03-29T17:23:25.871Z,12.48
2018-03-29T17:25:55.765Z,12.44
2018-03-29T17:28:24.901Z,12.36
2018-03-29T17:30:54.767Z,12.26
2018-03-29T17:33:23.896Z,12.14
2018-03-29T17:35:53.755Z,12.05
2018-03-29T17:38:22.884Z,11.94
2018-03-29T17:40:53.562Z,11.84
2018-03-29T17:43:22.720Z,11.81
2018-03-29T17:45:51.827Z,11.72
2018-03-29T17:48:21.733Z,11.76
2018-03-29T17:50:50.887Z,11.78
2018-03-29T17:53:19.989Z,11.81
2018-03-29T17:55:49.889Z,11.80
2018-03-29T17:58:19.767Z,11.77
2018-03-29T18:00:49.684Z,11.75
2018-03-29T18:03:18.779Z,11.69
2018-03-29T18:05:48.651Z,11.66
2018-03-29T18:08:17.771Z,11.56
2018-03-29T18:10:46.915Z,11.46
2018-03-29T18:13:16.027Z,11.37
2018-03-29T18:15:45.137Z,11.38
2018-03-29T18:18:14.256Z,11.38
2018-03-29T18:20:43.352Z,11.43
2018-03-29T18:23:12.500Z,11.40
2018-03-29T18:25:41.627Z,11.38
2018-03-29T18:28:12.021Z,11.39
2018-03-29T18:30:41.128Z,11.37
2018-03-29T18:33:10.330Z,11.26
2018-03-29T18:35:40.036Z,11.12
2018-03-29T18:38:09.193Z,11.11
2018-03-29T18:40:38.302Z,10.86
2018-03-29T18:43:08.197Z,10.65
2018-03-29T18:45:37.335Z,10.53
2018-03-29T18:48:06.480Z,10.49
2018-03-29T18:50:35.646Z,10.54
2018-03-29T18:53:04.790Z,10.52
2018-03-29T18:55:33.926Z,10.53
2018-03-29T18:58:03.050Z,10.53
2018-03-29T19:00:32.175Z,10.55
2018-03-29T19:03:01.323Z,10.56
2018-03-29T19:05:30.473Z,10.56
2018-03-29T19:07:59.633Z,10.64
2018-03-29T19:10:28.803Z,10.36
2018-03-29T19:12:57.920Z,10.21
2018-03-29T19:15:27.069Z,9.88
2018-03-29T19:17:57.000Z,9.75
2018-03-29T19:20:26.913Z,9.70
2018-03-29T19:22:56.782Z,9.61
2018-03-29T19:25:25.913Z,9.66
2018-03-29T19:27:55.820Z,9.55
2018-03-29T19:30:24.953Z,9.42
2018-03-29T19:32:54.099Z,9.37
2018-03-29T19:35:23.182Z,9.43
2018-03-29T19:37:52.301Z,9.35
2018-03-29T19:40:21.432Z,9.13
2018-03-29T19:42:50.558Z,9.18
2018-03-29T19:45:20.421Z,9.25
2018-03-29T19:47:49.553Z,9.19
2018-03-29T19:50:18.687Z,9.03
2018-03-29T19:52:47.791Z,8.92
2018-03-29T19:55:16.919Z,9.01
2018-03-29T19:57:46.771Z,8.97
2018-03-29T20:00:15.899Z,8.91
2018-03-29T20:02:44.987Z,9.05
2018-03-29T20:05:14.092Z,8.82
2018-03-29T20:07:43.234Z,8.72
2018-03-29T20:10:12.393Z,8.79
2018-03-29T20:12:41.494Z,8.77
2018-03-29T20:15:12.643Z,8.77
2018-03-29T20:17:41.791Z,8.73
2018-03-29T20:20:15.971Z,8.68
2018-03-29T20:22:45.126Z,8.50
2018-03-29T20:25:14.235Z,8.44
2018-03-29T20:27:43.506Z,8.37
2018-03-29T20:30:12.658Z,8.42
2018-03-29T20:32:41.811Z,8.40
2018-03-29T20:35:12.952Z,8.39
2018-03-29T20:37:42.085Z,8.46
2018-03-29T20:40:12.444Z,8.44
2018-03-29T20:42:41.557Z,8.56
2018-03-29T20:45:10.710Z,8.50
2018-03-29T20:47:39.817Z,8.36
2018-03-29T20:50:08.952Z,8.26
2018-03-29T20:52:38.079Z,8.37
2018-03-29T20:55:07.196Z,8.15
2018-03-29T20:57:36.386Z,8.17
2018-03-29T21:00:05.491Z,8.12
2018-03-29T21:02:35.391Z,8.04
2018-03-29T21:05:05.288Z,8.19
2018-03-29T21:07:34.424Z,8.09
2018-03-29T21:10:03.538Z,8.20
2018-03-29T21:12:32.690Z,8.13
2018-03-29T21:15:02.584Z,8.05
2018-03-29T21:17:31.704Z,7.83
2018-03-29T21:20:00.793Z,7.84
2018-03-29T21:22:29.922Z,7.75
2018-03-29T21:24:59.063Z,7.77
2018-03-29T21:27:28.192Z,7.70
2018-03-29T21:29:58.098Z,7.75
2018-03-29T21:32:28.045Z,7.68
2018-03-29T21:34:57.911Z,7.50
2018-03-29T21:37:27.031Z,7.59
2018-03-29T21:39:56.182Z,7.60
2018-03-29T21:42:25.390Z,7.65
2018-03-29T21:44:54.444Z,7.73
2018-03-29T21:47:24.392Z,7.79
2018-03-29T21:49:54.258Z,7.84
2018-03-29T21:52:23.409Z,7.82
2018-03-29T21:54:52.563Z,7.68
2018-03-29T21:57:22.428Z,7.60
2018-03-29T21:59:51.570Z,7.59
2018-03-29T22:02:20.667Z,7.57
2018-03-29T22:04:50.592Z,7.49
2018-03-29T22:07:19.671Z,7.66
2018-03-29T22:09:48.998Z,7.66
2018-03-29T22:12:18.136Z,7.57
2018-03-29T22:14:47.251Z,7.40
2018-03-29T22:17:16.443Z,7.39
2018-03-29T22:19:45.557Z,7.44
2018-03-29T22:22:15.474Z,7.19
2018-03-29T22:24:45.382Z,7.16
2018-03-29T22:27:14.481Z,7.15
2018-03-29T22:29:44.370Z,7.09
2018-03-29T22:32:13.504Z,7.14
2018-03-29T22:34:42.578Z,7.03
2018-03-29T22:37:12.630Z,6.99
2018-03-29T22:39:41.789Z,7.04
2018-03-29T22:42:10.916Z,7.07
2018-03-29T22:44:40.054Z,7.08
2018-03-29T22:47:09.290Z,7.10
2018-03-29T22:49:38.477Z,7.22
2018-03-29T22:52:07.584Z,7.36
2018-03-29T22:54:36.704Z,7.19
2018-03-29T22:57:05.810Z,6.99
2018-03-29T22:59:34.938Z,6.94
2018-03-29T23:02:04.065Z,6.92
2018-03-29T23:04:33.870Z,6.81
2018-03-29T23:07:03.000Z,6.81
2018-03-29T23:09:32.880Z,6.85
2018-03-29T23:14:37.944Z,6.83
2018-03-29T23:17:07.061Z,6.87
2018-03-29T23:19:36.963Z,6.74
2018-03-29T23:22:06.854Z,6.80
2018-03-29T23:24:35.958Z,6.59
2018-03-29T23:27:05.084Z,6.71
2018-03-29T23:29:34.940Z,6.75
2018-03-29T23:32:04.070Z,6.75
2018-03-29T23:34:33.182Z,6.73
2018-03-29T23:37:03.082Z,6.62
2018-03-29T23:39:32.207Z,6.76
2018-03-29T23:42:02.083Z,6.76
2018-03-29T23:44:31.186Z,6.82
2018-03-29T23:47:00.323Z,6.68
2018-03-29T23:49:29.438Z,6.60
2018-03-29T23:51:59.321Z,6.71
2018-03-29T23:54:29.203Z,6.58
2018-03-29T23:56:58.300Z,6.81
2018-03-29T23:59:27.430Z,6.59
